createdAt,value
2019-05-06T00:01:44.225Z,11.30
2019-05-06T00:02:43.593Z,9.70
2019-05-06T00:04:47.294Z,7.70
2019-05-06T00:05:47.530Z,7.80
2019-05-06T00:07:51.701Z,7.20
2019-05-06T00:08:51.938Z,10.20
2019-05-06T00:10:56.089Z,13.70
2019-05-06T00:11:56.343Z,9.60
2019-05-06T00:14:00.495Z,11.30
2019-05-06T00:15:00.730Z,11.00
2019-05-06T00:17:04.899Z,12.60
2019-05-06T00:18:05.136Z,8.00
2019-05-06T00:20:09.282Z,6.50
2019-05-06T00:21:09.514Z,11.50
2019-05-06T00:23:14.225Z,13.00
2019-05-06T00:24:14.574Z,9.20
2019-05-06T00:26:18.084Z,9.70
2019-05-06T00:27:18.319Z,9.00
2019-05-06T00:29:24.223Z,9.60
2019-05-06T00:30:24.294Z,7.50
2019-05-06T00:32:15.822Z,8.30
2019-05-06T00:33:16.056Z,9.60
2019-05-06T00:35:20.202Z,12.30
2019-05-06T00:36:20.437Z,10.80
2019-05-06T00:38:24.751Z,10.30
2019-05-06T00:39:24.841Z,9.30
2019-05-06T00:41:28.984Z,10.60
2019-05-06T00:42:29.221Z,9.30
2019-05-06T00:44:34.647Z,13.70
2019-05-06T00:45:34.123Z,11.80
2019-05-06T00:47:37.788Z,11.50
2019-05-06T00:48:38.026Z,9.50
2019-05-06T00:50:44.085Z,11.10
2019-05-06T00:51:43.981Z,11.50
2019-05-06T00:53:46.580Z,11.50
2019-05-06T00:54:46.815Z,9.80
2019-05-06T00:56:50.965Z,10.20
2019-05-06T00:57:51.198Z,11.50
2019-05-06T00:59:55.366Z,10.10
2019-05-06T01:00:55.600Z,12.40
2019-05-06T01:02:59.773Z,10.50
2019-05-06T01:04:00.007Z,10.80
2019-05-06T01:06:04.155Z,11.50
2019-05-06T01:07:04.389Z,11.10
2019-05-06T01:09:08.566Z,14.00
2019-05-06T01:10:08.800Z,11.70
2019-05-06T01:12:03.742Z,11.40
2019-05-06T01:13:04.078Z,15.50
2019-05-06T01:15:06.293Z,14.30
2019-05-06T01:16:06.529Z,10.30
2019-05-06T01:18:10.699Z,13.60
2019-05-06T01:19:10.937Z,10.40
2019-05-06T01:21:15.080Z,12.40
2019-05-06T01:22:15.315Z,11.90
2019-05-06T01:24:19.482Z,12.50
2019-05-06T01:25:19.718Z,12.60
2019-05-06T01:27:24.145Z,10.20
2019-05-06T01:28:24.545Z,12.50
2019-05-06T01:30:28.285Z,15.50
2019-05-06T01:31:39.884Z,14.10
2019-05-06T01:33:34.952Z,11.80
2019-05-06T01:34:33.988Z,13.40
2019-05-06T01:36:37.087Z,13.10
2019-05-06T01:37:37.323Z,13.30
2019-05-06T01:39:43.508Z,11.90
2019-05-06T01:40:41.723Z,10.40
2019-05-06T01:42:45.892Z,13.90
2019-05-06T01:43:46.128Z,14.20
2019-05-06T01:45:50.276Z,13.50
2019-05-06T01:46:50.509Z,13.10
2019-05-06T01:48:54.677Z,13.30
2019-05-06T01:49:54.912Z,15.50
2019-05-06T01:51:47.991Z,13.50
2019-05-06T01:52:48.224Z,15.10
2019-05-06T01:54:54.257Z,15.60
2019-05-06T01:55:54.484Z,15.00
2019-05-06T01:57:56.820Z,15.50
2019-05-06T01:58:57.055Z,17.20
2019-05-06T02:01:01.203Z,17.30
2019-05-06T02:02:04.071Z,14.20
2019-05-06T02:04:05.619Z,19.30
2019-05-06T02:05:05.857Z,16.50
2019-05-06T02:07:10.009Z,16.00
2019-05-06T02:08:10.248Z,14.60
2019-05-06T02:10:14.417Z,18.30
2019-05-06T02:11:14.972Z,21.90
2019-05-06T02:13:18.830Z,18.10
2019-05-06T02:14:19.067Z,18.80
2019-05-06T02:16:24.051Z,19.50
2019-05-06T02:17:23.983Z,17.00
2019-05-06T02:19:27.637Z,17.60
2019-05-06T02:20:27.872Z,21.80
2019-05-06T02:22:20.950Z,22.10
2019-05-06T02:23:21.193Z,21.20
2019-05-06T02:25:25.360Z,18.00
2019-05-06T02:26:25.598Z,19.10
2019-05-06T02:28:29.768Z,21.20
2019-05-06T02:29:30.012Z,19.20
2019-05-06T02:31:35.406Z,21.80
2019-05-06T02:32:35.872Z,17.80
2019-05-06T02:34:38.583Z,21.00
2019-05-06T02:35:38.829Z,20.60
2019-05-06T02:37:46.090Z,19.00
2019-05-06T02:38:50.593Z,16.50
2019-05-06T02:40:47.384Z,18.50
2019-05-06T02:41:47.623Z,20.90
2019-05-06T02:43:54.243Z,17.40
2019-05-06T02:44:54.094Z,21.40
2019-05-06T02:46:56.187Z,21.60
2019-05-06T02:47:56.430Z,19.20
2019-05-06T02:50:04.164Z,22.80
2019-05-06T02:51:03.391Z,24.80
2019-05-06T02:53:04.991Z,21.80
2019-05-06T02:54:05.228Z,26.10
2019-05-06T02:56:09.401Z,23.70
2019-05-06T02:57:09.638Z,19.90
2019-05-06T02:59:13.818Z,22.20
2019-05-06T03:00:14.056Z,22.10
2019-05-06T03:02:07.135Z,25.10
2019-05-06T03:03:07.370Z,22.40
2019-05-06T03:05:13.049Z,30.10
2019-05-06T03:06:13.125Z,30.00
2019-05-06T03:08:15.933Z,24.20
2019-05-06T03:09:16.173Z,26.90
2019-05-06T03:11:20.346Z,26.90
2019-05-06T03:12:22.819Z,24.70
2019-05-06T03:14:24.755Z,30.20
2019-05-06T03:15:24.997Z,27.50
2019-05-06T03:17:29.145Z,27.00
2019-05-06T03:18:29.382Z,28.70
2019-05-06T03:20:35.896Z,30.10
2019-05-06T03:21:37.071Z,31.90
2019-05-06T03:23:37.958Z,26.40
2019-05-06T03:24:38.174Z,30.30
2019-05-06T03:26:43.850Z,25.40
2019-05-06T03:27:46.491Z,30.00
2019-05-06T03:29:46.749Z,36.50
2019-05-06T03:30:46.987Z,30.10
2019-05-06T03:33:27.588Z,42.30
2019-05-06T03:34:16.048Z,40.50
2019-05-06T03:36:06.613Z,40.90
2019-05-06T03:36:56.676Z,38.30
2019-05-06T03:39:02.840Z,42.60
2019-05-06T03:40:02.758Z,40.40
2019-05-06T03:41:53.761Z,36.40
2019-05-06T03:42:54.021Z,37.60
2019-05-06T03:44:57.690Z,38.70
2019-05-06T03:45:57.924Z,41.70
2019-05-06T03:48:05.366Z,47.40
2019-05-06T03:49:03.740Z,38.10
2019-05-06T03:51:06.477Z,38.20
2019-05-06T03:52:06.717Z,36.20
2019-05-06T03:54:12.825Z,41.20
2019-05-06T03:55:13.516Z,38.60
2019-05-06T03:57:15.280Z,36.10
2019-05-06T03:58:15.509Z,40.40
2019-05-06T04:00:19.689Z,31.30
2019-05-06T04:01:19.922Z,35.90
2019-05-06T04:03:42.060Z,37.10
2019-05-06T04:04:24.306Z,37.50
2019-05-06T04:06:28.485Z,40.10
2019-05-06T04:07:28.720Z,38.00
2019-05-06T04:09:36.402Z,40.20
2019-05-06T04:10:36.688Z,27.60
2019-05-06T04:12:26.204Z,30.30
2019-05-06T04:13:26.450Z,33.50
2019-05-06T04:15:34.047Z,29.50
2019-05-06T04:16:33.640Z,36.90
2019-05-06T04:18:34.996Z,35.10
2019-05-06T04:19:35.233Z,31.00
2019-05-06T04:21:39.422Z,34.00
2019-05-06T04:22:39.641Z,31.40
2019-05-06T04:24:43.789Z,29.30
2019-05-06T04:25:44.044Z,29.10
2019-05-06T04:27:48.205Z,25.30
2019-05-06T04:28:48.439Z,24.30
2019-05-06T04:30:54.764Z,30.40
2019-05-06T04:31:54.020Z,24.80
2019-05-06T04:34:09.918Z,26.30
2019-05-06T04:34:57.236Z,23.60
2019-05-06T04:37:03.488Z,25.70
2019-05-06T04:38:03.129Z,23.10
2019-05-06T04:40:05.798Z,23.00
2019-05-06T04:41:06.032Z,27.40
2019-05-06T04:43:13.071Z,20.30
2019-05-06T04:44:13.580Z,22.50
2019-05-06T04:46:16.887Z,20.50
2019-05-06T04:47:14.991Z,19.40
2019-05-06T04:49:18.997Z,20.20
2019-05-06T04:50:19.230Z,17.80
2019-05-06T04:52:13.814Z,17.80
2019-05-06T04:53:13.695Z,15.90
2019-05-06T04:55:16.713Z,22.30
2019-05-06T04:56:16.947Z,21.90
2019-05-06T04:58:23.253Z,21.90
2019-05-06T04:59:23.230Z,22.30
2019-05-06T05:01:25.519Z,19.30
2019-05-06T05:02:25.751Z,18.20
2019-05-06T05:04:32.622Z,21.70
2019-05-06T05:05:32.855Z,18.10
2019-05-06T05:07:34.300Z,17.60
2019-05-06T05:08:34.534Z,15.30
2019-05-06T05:10:38.679Z,20.70
2019-05-06T05:11:38.915Z,18.40
2019-05-06T05:13:43.388Z,21.10
2019-05-06T05:14:43.311Z,18.30
2019-05-06T05:16:47.511Z,17.80
2019-05-06T05:17:47.756Z,15.50
2019-05-06T05:19:52.327Z,16.00
2019-05-06T05:20:52.872Z,16.20
2019-05-06T05:22:56.306Z,18.50
2019-05-06T05:23:56.543Z,17.40
2019-05-06T05:26:02.730Z,16.50
2019-05-06T05:27:03.084Z,23.00
2019-05-06T05:29:05.122Z,13.90
2019-05-06T05:30:05.364Z,15.80
2019-05-06T05:31:58.460Z,16.20
2019-05-06T05:32:58.693Z,16.50
2019-05-06T05:35:02.842Z,17.90
2019-05-06T05:36:03.081Z,14.50
2019-05-06T05:38:07.252Z,18.90
2019-05-06T05:39:07.488Z,12.90
2019-05-06T05:41:12.105Z,16.80
2019-05-06T05:42:12.351Z,18.00
2019-05-06T05:44:16.052Z,15.90
2019-05-06T05:45:16.294Z,14.20
2019-05-06T05:47:22.088Z,16.10
2019-05-06T05:48:23.254Z,16.70
2019-05-06T05:50:24.859Z,15.70
2019-05-06T05:51:25.094Z,17.80
2019-05-06T05:53:29.286Z,21.70
2019-05-06T05:54:29.520Z,21.50
2019-05-06T05:56:33.682Z,28.70
2019-05-06T05:57:33.914Z,21.70
2019-05-06T05:59:38.094Z,19.60
2019-05-06T06:00:38.323Z,19.60
2019-05-06T06:02:43.882Z,20.60
2019-05-06T06:03:43.795Z,16.70
2019-05-06T06:05:47.943Z,18.70
2019-05-06T06:06:48.175Z,18.20
2019-05-06T06:08:52.503Z,18.70
2019-05-06T06:09:52.588Z,19.50
2019-05-06T06:11:45.662Z,16.40
2019-05-06T06:12:45.899Z,16.60
2019-05-06T06:14:53.419Z,25.00
2019-05-06T06:15:52.162Z,16.10
2019-05-06T06:17:54.476Z,15.80
2019-05-06T06:18:54.712Z,16.60
2019-05-06T06:20:58.859Z,17.90
2019-05-06T06:21:59.098Z,14.40
2019-05-06T06:24:03.275Z,13.70
2019-05-06T06:25:04.322Z,13.00
2019-05-06T06:27:07.656Z,14.10
2019-05-06T06:28:07.894Z,20.00
2019-05-06T06:30:12.886Z,16.90
2019-05-06T06:31:12.301Z,15.30
2019-05-06T06:33:16.471Z,12.70
2019-05-06T06:34:16.710Z,13.50
2019-05-06T06:36:22.946Z,10.70
2019-05-06T06:37:22.579Z,14.40
2019-05-06T06:39:25.269Z,18.70
2019-05-06T06:40:25.503Z,14.10
2019-05-06T06:42:18.579Z,15.20
2019-05-06T06:43:18.816Z,12.60
2019-05-06T06:45:23.169Z,15.70
2019-05-06T06:46:23.220Z,14.60
2019-05-06T06:48:27.972Z,14.40
2019-05-06T06:49:27.629Z,11.90
2019-05-06T06:51:33.096Z,10.80
2019-05-06T06:52:32.591Z,11.00
2019-05-06T06:54:36.198Z,8.60
2019-05-06T06:55:36.434Z,12.70
2019-05-06T06:57:42.411Z,10.90
2019-05-06T06:58:41.761Z,9.30
2019-05-06T07:00:45.005Z,7.50
2019-05-06T07:01:45.243Z,7.90
2019-05-06T07:03:49.421Z,10.50
2019-05-06T07:04:49.660Z,8.50
2019-05-06T07:06:53.819Z,7.40
2019-05-06T07:07:54.061Z,8.90
2019-05-06T07:09:58.239Z,7.60
2019-05-06T07:10:58.482Z,7.90
2019-05-06T07:13:03.041Z,8.30
2019-05-06T07:14:02.909Z,8.80
2019-05-06T07:16:07.069Z,7.10
2019-05-06T07:17:07.306Z,9.60
2019-05-06T07:19:12.788Z,6.80
2019-05-06T07:20:13.197Z,8.90
2019-05-06T07:22:06.776Z,10.70
2019-05-06T07:23:05.051Z,6.40
2019-05-06T07:25:09.229Z,42.90
2019-05-06T07:26:09.471Z,14.40
2019-05-06T07:28:13.666Z,9.40
2019-05-06T07:29:23.158Z,7.40
2019-05-06T07:31:22.664Z,11.60
2019-05-06T07:32:18.303Z,9.10
2019-05-06T07:34:22.885Z,6.40
2019-05-06T07:35:37.450Z,6.10
2019-05-06T07:37:26.892Z,11.30
2019-05-06T07:38:27.134Z,8.50
2019-05-06T07:40:32.620Z,8.50
2019-05-06T07:41:32.831Z,10.60
2019-05-06T07:43:35.740Z,5.80
2019-05-06T07:44:35.979Z,6.20
2019-05-06T07:46:42.286Z,7.20
2019-05-06T07:47:42.432Z,4.90
2019-05-06T07:49:44.599Z,5.80
2019-05-06T07:50:44.808Z,6.40
2019-05-06T07:52:48.964Z,5.60
2019-05-06T07:53:49.205Z,7.00
2019-05-06T07:55:53.384Z,6.40
2019-05-06T07:56:53.619Z,7.60
2019-05-06T07:58:57.800Z,5.80
2019-05-06T07:59:58.045Z,9.20
2019-05-06T08:01:53.881Z,6.00
2019-05-06T08:02:52.442Z,7.30
2019-05-06T08:04:55.552Z,4.20
2019-05-06T08:05:58.767Z,6.60
2019-05-06T08:07:59.948Z,6.60
2019-05-06T08:09:00.187Z,4.90
2019-05-06T08:11:04.365Z,7.10
2019-05-06T08:12:04.603Z,5.50
2019-05-06T08:14:09.796Z,4.60
2019-05-06T08:15:12.532Z,6.40
2019-05-06T08:17:14.192Z,5.80
2019-05-06T08:18:14.427Z,7.40
2019-05-06T08:20:18.606Z,3.40
2019-05-06T08:21:18.845Z,5.90
2019-05-06T08:23:23.009Z,6.90
2019-05-06T08:24:23.246Z,7.80
2019-05-06T08:26:27.430Z,5.30
2019-05-06T08:27:27.796Z,7.80
2019-05-06T08:29:33.049Z,5.90
2019-05-06T08:30:32.413Z,3.10
2019-05-06T08:32:25.172Z,4.40
2019-05-06T08:33:27.673Z,7.00
2019-05-06T08:35:29.589Z,4.20
2019-05-06T08:36:29.827Z,4.60
2019-05-06T08:38:33.991Z,3.80
2019-05-06T08:39:34.222Z,3.80
2019-05-06T08:41:38.400Z,3.50
2019-05-06T08:42:38.639Z,3.60
2019-05-06T08:44:42.896Z,7.40
2019-05-06T08:45:43.058Z,3.60
2019-05-06T08:47:47.220Z,5.20
2019-05-06T08:48:47.459Z,3.60
2019-05-06T08:50:52.887Z,4.50
2019-05-06T08:51:53.044Z,3.10
2019-05-06T08:53:56.034Z,3.20
2019-05-06T08:54:56.278Z,4.90
2019-05-06T08:57:02.461Z,4.70
2019-05-06T08:58:02.844Z,2.60
2019-05-06T09:00:04.886Z,6.20
2019-05-06T09:01:05.131Z,7.20
2019-05-06T09:03:09.290Z,3.50
2019-05-06T09:04:12.799Z,3.20
2019-05-06T09:06:26.895Z,5.00
2019-05-06T09:07:13.943Z,4.20
2019-05-06T09:09:18.126Z,4.10
2019-05-06T09:10:18.366Z,3.80
2019-05-06T09:12:13.025Z,3.60
2019-05-06T09:13:12.338Z,3.70
2019-05-06T09:15:15.873Z,3.50
2019-05-06T09:16:16.117Z,5.60
2019-05-06T09:18:20.295Z,2.20
2019-05-06T09:19:23.097Z,3.60
2019-05-06T09:21:24.726Z,3.00
2019-05-06T09:22:24.933Z,3.10
2019-05-06T09:24:29.111Z,4.90
2019-05-06T09:25:29.353Z,2.40
2019-05-06T09:27:33.528Z,3.80
2019-05-06T09:28:34.001Z,3.10
2019-05-06T09:30:37.928Z,2.40
2019-05-06T09:31:38.172Z,3.80
2019-05-06T09:33:42.632Z,3.10
2019-05-06T09:34:43.246Z,1.90
2019-05-06T09:36:52.023Z,2.90
2019-05-06T09:37:47.006Z,3.40
2019-05-06T09:39:53.231Z,3.10
2019-05-06T09:40:52.560Z,6.70
2019-05-06T09:42:55.615Z,5.10
2019-05-06T09:43:55.857Z,4.10
2019-05-06T09:46:01.799Z,2.50
2019-05-06T09:47:02.355Z,1.30
2019-05-06T09:49:04.463Z,2.90
2019-05-06T09:50:04.676Z,5.20
2019-05-06T09:51:57.769Z,2.80
2019-05-06T09:52:58.004Z,2.40
2019-05-06T09:55:03.260Z,2.10
2019-05-06T09:56:03.314Z,2.50
2019-05-06T09:58:06.590Z,3.60
2019-05-06T09:59:06.829Z,3.70
2019-05-06T10:01:13.100Z,2.50
2019-05-06T10:02:12.415Z,1.80
2019-05-06T10:04:15.412Z,3.70
2019-05-06T10:05:15.652Z,2.20
2019-05-06T10:07:19.809Z,1.40
2019-05-06T10:08:20.050Z,2.10
2019-05-06T10:10:24.226Z,3.20
2019-05-06T10:11:24.467Z,3.00
2019-05-06T10:13:28.648Z,4.20
2019-05-06T10:14:28.889Z,1.30
2019-05-06T10:16:33.049Z,1.50
2019-05-06T10:17:33.288Z,2.00
2019-05-06T10:19:37.464Z,1.90
2019-05-06T10:20:37.708Z,2.10
2019-05-06T10:22:43.043Z,2.90
2019-05-06T10:23:42.437Z,1.70
2019-05-06T10:25:46.294Z,1.80
2019-05-06T10:26:46.538Z,4.00
2019-05-06T10:28:52.332Z,2.60
2019-05-06T10:29:52.239Z,2.00
2019-05-06T10:31:44.049Z,3.70
2019-05-06T10:32:44.296Z,5.20
2019-05-06T10:34:48.479Z,4.50
2019-05-06T10:35:48.721Z,3.80
2019-05-06T10:37:52.885Z,6.30
2019-05-06T10:38:53.128Z,5.70
2019-05-06T10:41:03.951Z,1.80
2019-05-06T10:41:57.558Z,1.30
2019-05-06T10:44:03.036Z,2.90
2019-05-06T10:45:02.076Z,1.90
2019-05-06T10:47:06.155Z,1.70
2019-05-06T10:48:06.396Z,2.50
2019-05-06T10:50:12.529Z,1.20
2019-05-06T10:51:13.524Z,2.30
2019-05-06T10:53:15.008Z,1.90
2019-05-06T10:54:15.244Z,2.80
2019-05-06T10:56:19.431Z,1.50
2019-05-06T10:57:21.925Z,1.30
2019-05-06T10:59:23.882Z,2.50
2019-05-06T11:00:24.125Z,3.30
2019-05-06T11:02:17.218Z,2.50
2019-05-06T11:03:17.464Z,3.50
2019-05-06T11:05:21.657Z,2.60
2019-05-06T11:06:22.198Z,1.10
2019-05-06T11:08:26.070Z,2.10
2019-05-06T11:09:26.315Z,1.40
2019-05-06T11:11:35.026Z,2.40
2019-05-06T11:12:32.577Z,1.50
2019-05-06T11:14:34.915Z,2.80
2019-05-06T11:15:35.159Z,2.10
2019-05-06T11:17:39.352Z,1.90
2019-05-06T11:18:39.596Z,2.10
2019-05-06T11:20:44.259Z,2.40
2019-05-06T11:21:45.012Z,2.00
2019-05-06T11:23:48.197Z,1.50
2019-05-06T11:24:48.439Z,3.30
2019-05-06T11:26:53.420Z,3.70
2019-05-06T11:27:52.954Z,2.20
2019-05-06T11:29:57.032Z,1.60
2019-05-06T11:30:57.272Z,2.50
2019-05-06T11:33:04.436Z,3.40
2019-05-06T11:34:01.694Z,1.70
2019-05-06T11:36:05.873Z,2.40
2019-05-06T11:37:06.114Z,2.40
2019-05-06T11:39:14.053Z,1.10
2019-05-06T11:40:16.535Z,4.70
2019-05-06T11:42:23.767Z,3.00
2019-05-06T11:43:03.872Z,2.30
2019-05-06T11:45:08.030Z,3.30
2019-05-06T11:46:08.270Z,3.50
2019-05-06T11:48:14.567Z,1.70
2019-05-06T11:49:12.711Z,2.60
2019-05-06T11:51:16.872Z,1.80
2019-05-06T11:52:17.115Z,1.30
2019-05-06T11:54:24.447Z,1.90
2019-05-06T11:55:31.710Z,2.10
2019-05-06T11:57:25.696Z,2.50
2019-05-06T11:58:25.939Z,2.30
2019-05-06T12:00:35.599Z,2.00
2019-05-06T12:01:32.636Z,2.10
2019-05-06T12:03:34.540Z,4.40
2019-05-06T12:04:34.830Z,2.30
2019-05-06T12:06:38.967Z,1.90
2019-05-06T12:07:39.222Z,2.60
2019-05-06T12:09:43.373Z,2.60
2019-05-06T12:10:43.613Z,1.30
2019-05-06T12:12:47.795Z,13.10
2019-05-06T12:13:48.040Z,1.90
2019-05-06T12:15:52.534Z,1.70
2019-05-06T12:16:55.155Z,1.30
2019-05-06T12:18:59.640Z,2.80
2019-05-06T12:19:56.882Z,2.70
2019-05-06T12:21:49.964Z,2.00
2019-05-06T12:22:50.206Z,2.20
2019-05-06T12:24:54.388Z,2.70
2019-05-06T12:25:54.633Z,3.30
2019-05-06T12:27:58.821Z,2.10
2019-05-06T12:28:59.062Z,2.00
2019-05-06T12:31:03.244Z,2.00
2019-05-06T12:32:03.705Z,1.60
2019-05-06T12:34:07.649Z,2.20
2019-05-06T12:35:07.892Z,2.20
2019-05-06T12:37:12.191Z,2.20
2019-05-06T12:38:26.679Z,2.70
2019-05-06T12:40:16.474Z,3.00
2019-05-06T12:41:16.713Z,2.20
2019-05-06T12:43:22.563Z,2.50
2019-05-06T12:44:23.098Z,5.20
2019-05-06T12:46:26.305Z,1.90
2019-05-06T12:47:26.547Z,1.80
2019-05-06T12:49:32.571Z,2.90
2019-05-06T12:50:33.063Z,1.30
2019-05-06T12:52:24.055Z,2.60
2019-05-06T12:53:24.302Z,2.10
2019-05-06T12:55:28.476Z,3.40
2019-05-06T12:56:28.720Z,1.50
2019-05-06T12:58:32.911Z,2.00
2019-05-06T12:59:33.169Z,2.30
2019-05-06T13:01:37.323Z,2.40
2019-05-06T13:02:37.581Z,2.10
2019-05-06T13:04:51.441Z,1.60
2019-05-06T13:05:43.007Z,3.40
2019-05-06T13:07:48.190Z,1.50
2019-05-06T13:08:58.794Z,1.90
2019-05-06T13:10:52.693Z,1.50
2019-05-06T13:11:52.811Z,1.80
2019-05-06T13:14:00.644Z,1.70
2019-05-06T13:14:57.227Z,2.10
2019-05-06T13:17:02.712Z,2.30
2019-05-06T13:18:06.388Z,1.70
2019-05-06T13:20:05.814Z,2.20
2019-05-06T13:21:06.678Z,1.40
2019-05-06T13:23:17.536Z,2.60
2019-05-06T13:24:12.173Z,2.50
2019-05-06T13:26:16.769Z,3.20
2019-05-06T13:27:16.910Z,1.40
2019-05-06T13:29:22.732Z,3.30
2019-05-06T13:30:22.704Z,2.50
2019-05-06T13:32:14.428Z,1.70
2019-05-06T13:33:14.799Z,1.70
2019-05-06T13:35:18.867Z,2.80
2019-05-06T13:36:19.126Z,1.50
2019-05-06T13:38:24.316Z,4.30
2019-05-06T13:39:24.558Z,2.70
2019-05-06T13:41:28.755Z,2.50
2019-05-06T13:42:29.077Z,4.90
2019-05-06T13:44:33.292Z,1.60
2019-05-06T13:45:35.592Z,2.10
2019-05-06T13:47:37.666Z,3.60
2019-05-06T13:48:37.898Z,1.50
2019-05-06T13:50:42.080Z,2.30
2019-05-06T13:51:42.899Z,2.20
2019-05-06T13:53:46.544Z,2.20
2019-05-06T13:54:46.745Z,3.10
2019-05-06T13:56:52.154Z,3.60
2019-05-06T13:57:52.281Z,3.30
2019-05-06T13:59:55.345Z,2.20
2019-05-06T14:00:55.594Z,1.70
2019-05-06T14:03:01.972Z,2.60
2019-05-06T14:04:00.017Z,2.60
2019-05-06T14:06:04.192Z,3.00
2019-05-06T14:07:07.275Z,2.20
2019-05-06T14:09:08.612Z,2.80
2019-05-06T14:10:08.817Z,3.90
2019-05-06T14:12:02.943Z,3.30
2019-05-06T14:13:03.172Z,2.00
2019-05-06T14:15:07.328Z,3.70
2019-05-06T14:16:07.605Z,1.90
2019-05-06T14:18:13.437Z,1.90
2019-05-06T14:19:13.188Z,3.70
2019-05-06T14:21:16.146Z,1.40
2019-05-06T14:22:16.382Z,1.70
2019-05-06T14:24:22.161Z,2.00
2019-05-06T14:25:22.806Z,1.60
2019-05-06T14:27:25.005Z,1.60
2019-05-06T14:28:25.230Z,1.90
2019-05-06T14:30:29.384Z,1.60
2019-05-06T14:31:29.624Z,1.90
2019-05-06T14:33:34.808Z,1.30
2019-05-06T14:34:35.045Z,2.10
2019-05-06T14:36:39.237Z,3.00
2019-05-06T14:37:39.521Z,1.40
2019-05-06T14:39:53.410Z,3.10
2019-05-06T14:40:43.901Z,3.40
2019-05-06T14:42:48.094Z,2.90
2019-05-06T14:43:48.319Z,1.60
2019-05-06T14:45:53.032Z,2.50
2019-05-06T14:46:52.716Z,2.60
2019-05-06T14:48:56.896Z,2.70
2019-05-06T14:49:57.135Z,1.50
2019-05-06T14:51:50.246Z,1.40
2019-05-06T14:52:50.487Z,1.60
2019-05-06T14:54:54.650Z,2.60
2019-05-06T14:55:54.885Z,2.40
2019-05-06T14:57:59.058Z,2.90
2019-05-06T14:58:59.295Z,1.40
2019-05-06T15:01:04.496Z,3.50
2019-05-06T15:02:04.730Z,4.70
2019-05-06T15:04:08.914Z,1.40
2019-05-06T15:05:09.126Z,4.10
2019-05-06T15:07:13.303Z,2.50
2019-05-06T15:08:13.544Z,2.10
2019-05-06T15:10:23.045Z,2.20
2019-05-06T15:11:17.938Z,4.60
2019-05-06T15:13:22.848Z,3.20
2019-05-06T15:14:22.818Z,3.20
2019-05-06T15:16:26.526Z,3.70
2019-05-06T15:17:26.792Z,3.70
2019-05-06T15:19:30.944Z,3.20
2019-05-06T15:20:34.110Z,3.20
2019-05-06T15:22:24.299Z,2.20
2019-05-06T15:23:24.518Z,2.60
2019-05-06T15:25:28.677Z,3.20
2019-05-06T15:26:28.917Z,2.60
2019-05-06T15:28:33.817Z,2.90
2019-05-06T15:29:33.728Z,4.30
2019-05-06T15:31:37.490Z,2.80
2019-05-06T15:32:37.720Z,2.20
2019-05-06T15:34:42.943Z,5.20
2019-05-06T15:35:43.153Z,2.40
2019-05-06T15:37:47.334Z,3.20
2019-05-06T15:38:47.568Z,2.30
2019-05-06T15:40:52.482Z,2.90
2019-05-06T15:41:52.141Z,3.10
2019-05-06T15:43:56.148Z,2.60
2019-05-06T15:44:56.394Z,2.70
2019-05-06T15:47:00.539Z,2.30
2019-05-06T15:48:02.643Z,3.20
2019-05-06T15:50:04.988Z,1.90
2019-05-06T15:51:05.188Z,2.30
2019-05-06T15:53:09.371Z,1.90
2019-05-06T15:54:09.608Z,2.30
2019-05-06T15:56:13.763Z,6.20
2019-05-06T15:57:14.001Z,3.50
2019-05-06T15:59:18.178Z,2.50
2019-05-06T16:00:18.417Z,2.20
2019-05-06T16:02:11.495Z,1.80
2019-05-06T16:03:12.916Z,2.30
2019-05-06T16:05:20.000Z,2.20
2019-05-06T16:06:16.151Z,2.80
2019-05-06T16:08:24.267Z,2.90
2019-05-06T16:09:23.177Z,2.20
2019-05-06T16:11:24.722Z,2.40
2019-05-06T16:12:24.973Z,2.00
2019-05-06T16:14:29.139Z,3.80
2019-05-06T16:15:29.400Z,2.60
2019-05-06T16:17:33.664Z,3.20
2019-05-06T16:18:33.784Z,3.00
2019-05-06T16:20:37.957Z,3.00
2019-05-06T16:21:38.204Z,1.80
2019-05-06T16:23:43.403Z,1.70
2019-05-06T16:24:43.637Z,1.30
2019-05-06T16:26:47.814Z,5.00
2019-05-06T16:27:51.067Z,3.50
2019-05-06T16:29:52.975Z,2.00
2019-05-06T16:30:53.479Z,2.30
2019-05-06T16:32:56.616Z,1.90
2019-05-06T16:33:56.849Z,3.00
2019-05-06T16:36:01.050Z,3.50
2019-05-06T16:37:01.942Z,1.40
2019-05-06T16:39:07.143Z,2.80
2019-05-06T16:40:05.759Z,2.50
2019-05-06T16:41:58.872Z,1.90
2019-05-06T16:42:59.102Z,2.20
2019-05-06T16:45:06.812Z,2.70
2019-05-06T16:46:03.523Z,1.80
2019-05-06T16:48:07.678Z,1.90
2019-05-06T16:49:07.919Z,3.20
2019-05-06T16:51:12.581Z,2.90
2019-05-06T16:52:13.007Z,1.80
2019-05-06T16:54:16.488Z,1.80
2019-05-06T16:55:16.729Z,2.60
2019-05-06T16:57:23.072Z,3.10
2019-05-06T16:58:22.229Z,2.70
2019-05-06T17:00:25.347Z,4.70
2019-05-06T17:01:25.549Z,2.70
2019-05-06T17:03:29.698Z,2.30
2019-05-06T17:04:29.935Z,2.30
2019-05-06T17:06:34.107Z,3.20
2019-05-06T17:07:34.343Z,3.40
2019-05-06T17:09:38.513Z,3.30
2019-05-06T17:10:40.332Z,3.30
2019-05-06T17:12:42.910Z,3.10
2019-05-06T17:13:44.665Z,2.80
2019-05-06T17:15:49.897Z,2.40
2019-05-06T17:16:47.760Z,2.70
2019-05-06T17:18:56.436Z,1.80
2019-05-06T17:19:52.907Z,2.10
2019-05-06T17:21:48.202Z,2.90
2019-05-06T17:22:45.569Z,2.90
2019-05-06T17:24:49.720Z,2.00
2019-05-06T17:25:51.965Z,3.40
2019-05-06T17:27:54.165Z,2.30
2019-05-06T17:28:54.405Z,2.70
2019-05-06T17:30:58.591Z,5.30
2019-05-06T17:31:58.882Z,2.90
2019-05-06T17:34:03.117Z,3.30
2019-05-06T17:35:03.347Z,3.70
2019-05-06T17:37:07.519Z,3.40
2019-05-06T17:38:07.759Z,3.70
2019-05-06T17:40:14.111Z,3.90
2019-05-06T17:41:12.424Z,5.30
2019-05-06T17:43:16.324Z,4.10
2019-05-06T17:44:16.563Z,4.40
2019-05-06T17:46:22.251Z,4.30
2019-05-06T17:47:22.832Z,4.60
2019-05-06T17:49:25.124Z,5.20
2019-05-06T17:50:25.355Z,5.90
2019-05-06T17:52:18.508Z,7.60
2019-05-06T17:53:18.840Z,4.10
2019-05-06T17:55:23.084Z,4.60
2019-05-06T17:56:23.355Z,5.70
2019-05-06T17:58:27.580Z,3.50
2019-05-06T17:59:27.852Z,6.00
2019-05-06T18:01:33.140Z,3.90
2019-05-06T18:02:33.089Z,4.60
2019-05-06T18:04:36.596Z,5.40
2019-05-06T18:05:37.200Z,8.40
2019-05-06T18:07:42.985Z,4.60
2019-05-06T18:08:43.207Z,5.60
2019-05-06T18:10:45.553Z,5.00
2019-05-06T18:11:57.812Z,7.10
2019-05-06T18:13:51.986Z,5.30
2019-05-06T18:14:50.223Z,4.00
2019-05-06T18:16:54.392Z,5.90
2019-05-06T18:17:54.660Z,4.90
2019-05-06T18:19:58.806Z,5.30
2019-05-06T18:20:59.086Z,4.40
2019-05-06T18:23:03.327Z,5.10
2019-05-06T18:24:03.546Z,6.40
2019-05-06T18:26:07.686Z,4.40
2019-05-06T18:27:07.920Z,4.80
2019-05-06T18:29:12.696Z,5.00
2019-05-06T18:30:22.278Z,5.10
2019-05-06T18:32:05.429Z,7.20
2019-05-06T18:33:05.675Z,5.00
2019-05-06T18:35:09.813Z,5.70
2019-05-06T18:36:10.059Z,5.90
2019-05-06T18:38:14.214Z,6.90
2019-05-06T18:39:14.450Z,6.30
2019-05-06T18:41:18.593Z,6.60
2019-05-06T18:42:20.396Z,5.90
2019-05-06T18:44:22.991Z,5.80
2019-05-06T18:45:23.228Z,6.20
2019-05-06T18:47:27.389Z,6.60
2019-05-06T18:48:31.196Z,6.60
2019-05-06T18:50:32.146Z,7.60
2019-05-06T18:51:31.998Z,7.00
2019-05-06T18:53:36.164Z,7.20
2019-05-06T18:54:36.401Z,8.10
2019-05-06T18:56:42.771Z,8.30
2019-05-06T18:57:42.390Z,8.20
2019-05-06T18:59:44.958Z,7.00
2019-05-06T19:00:45.194Z,7.30
2019-05-06T19:02:49.362Z,7.10
2019-05-06T19:03:49.598Z,7.20
2019-05-06T19:05:53.755Z,7.80
2019-05-06T19:07:08.646Z,7.50
2019-05-06T19:08:58.158Z,10.20
2019-05-06T19:09:58.401Z,8.70
2019-05-06T19:11:51.919Z,7.80
2019-05-06T19:12:52.725Z,8.30
2019-05-06T19:14:55.878Z,10.40
2019-05-06T19:15:56.113Z,7.20
2019-05-06T19:18:02.243Z,9.30
2019-05-06T19:19:03.791Z,9.60
2019-05-06T19:21:05.703Z,8.90
2019-05-06T19:22:05.936Z,10.60
2019-05-06T19:24:12.161Z,10.60
2019-05-06T19:25:12.454Z,9.50
2019-05-06T19:27:14.484Z,9.50
2019-05-06T19:28:14.719Z,12.90
2019-05-06T19:30:18.884Z,9.20
2019-05-06T19:31:19.118Z,9.40
2019-05-06T19:33:23.283Z,10.00
2019-05-06T19:34:23.744Z,10.00
2019-05-06T19:36:27.665Z,10.50
2019-05-06T19:37:27.909Z,12.20
2019-05-06T19:39:33.008Z,10.70
2019-05-06T19:40:32.375Z,10.60
2019-05-06T19:42:25.373Z,9.70
2019-05-06T19:43:25.606Z,10.30
2019-05-06T19:45:29.776Z,9.80
2019-05-06T19:46:30.020Z,9.90
2019-05-06T19:48:34.198Z,11.10
2019-05-06T19:49:34.422Z,10.10
2019-05-06T19:51:38.569Z,10.90
2019-05-06T19:52:38.801Z,10.30
2019-05-06T19:54:42.970Z,11.30
2019-05-06T19:55:46.626Z,10.60
2019-05-06T19:57:47.351Z,11.10
2019-05-06T19:58:47.586Z,10.80
2019-05-06T20:00:52.853Z,11.20
2019-05-06T20:01:52.534Z,10.40
2019-05-06T20:03:56.154Z,10.60
2019-05-06T20:04:56.388Z,11.60
2019-05-06T20:07:02.489Z,11.00